sensor_id;sensor_type;location;lat;lon;timestamp;pressure;altitude;pressure_sealevel;temperature;humidity
57847;BME280;43675;50.030;21.952;2022-12-05T00:00:13;99501.87;;;1.85;73.09
57847;BME280;43675;50.030;21.952;2022-12-05T00:02:42;99491.16;;;1.86;73.10
57847;BME280;43675;50.030;21.952;2022-12-05T00:05:14;99488.38;;;1.88;73.09
57847;BME280;43675;50.030;21.952;2022-12-05T00:07:39;99486.70;;;1.87;73.02
57847;BME280;43675;50.030;21.952;2022-12-05T00:10:06;99484.11;;;1.81;73.07
57847;BME280;43675;50.030;21.952;2022-12-05T00:12:32;99483.08;;;1.78;73.08
57847;BME280;43675;50.030;21.952;2022-12-05T00:15:05;99485.04;;;1.76;73.15
57847;BME280;43675;50.030;21.952;2022-12-05T00:17:31;99482.16;;;1.74;73.18
57847;BME280;43675;50.030;21.952;2022-12-05T00:19:57;99482.45;;;1.71;73.22
57847;BME280;43675;50.030;21.952;2022-12-05T00:22:23;99483.22;;;1.67;73.25
57847;BME280;43675;50.030;21.952;2022-12-05T00:24:49;99478.89;;;1.66;73.33
57847;BME280;43675;50.030;21.952;2022-12-05T00:27:14;99477.21;;;1.65;73.37
57847;BME280;43675;50.030;21.952;2022-12-05T00:29:40;99480.22;;;1.66;73.41
57847;BME280;43675;50.030;21.952;2022-12-05T00:32:06;99481.53;;;1.66;73.37
57847;BME280;43675;50.030;21.952;2022-12-05T00:34:31;99480.57;;;1.67;73.42
57847;BME280;43675;50.030;21.952;2022-12-05T00:36:57;99476.24;;;1.66;73.44
57847;BME280;43675;50.030;21.952;2022-12-05T00:39:22;99476.24;;;1.66;73.43
57847;BME280;43675;50.030;21.952;2022-12-05T00:41:48;99473.95;;;1.67;73.43
57847;BME280;43675;50.030;21.952;2022-12-05T00:44:14;99472.28;;;1.66;73.46
57847;BME280;43675;50.030;21.952;2022-12-05T00:46:40;99472.63;;;1.67;73.41
57847;BME280;43675;50.030;21.952;2022-12-05T00:49:06;99472.41;;;1.65;73.47
57847;BME280;43675;50.030;21.952;2022-12-05T00:51:36;99472.92;;;1.64;73.55
57847;BME280;43675;50.030;21.952;2022-12-05T00:54:14;99472.69;;;1.62;73.58
57847;BME280;43675;50.030;21.952;2022-12-05T00:56:40;99467.68;;;1.59;73.67
57847;BME280;43675;50.030;21.952;2022-12-05T00:59:06;99470.45;;;1.57;73.70
57847;BME280;43675;50.030;21.952;2022-12-05T01:01:36;99464.55;;;1.59;73.73
57847;BME280;43675;50.030;21.952;2022-12-05T01:04:05;99460.17;;;1.64;73.71
57847;BME280;43675;50.030;21.952;2022-12-05T01:06:38;99460.56;;;1.69;73.68
57847;BME280;43675;50.030;21.952;2022-12-05T01:09:05;99460.44;;;1.70;73.63
57847;BME280;43675;50.030;21.952;2022-12-05T01:11:31;99464.41;;;1.70;73.63
57847;BME280;43675;50.030;21.952;2022-12-05T01:13:57;99469.77;;;1.74;73.61
57847;BME280;43675;50.030;21.952;2022-12-05T01:16:29;99462.39;;;1.78;73.58
57847;BME280;43675;50.030;21.952;2022-12-05T01:18:57;99464.27;;;1.81;73.52
57847;BME280;43675;50.030;21.952;2022-12-05T01:21:24;99458.13;;;1.81;73.48
57847;BME280;43675;50.030;21.952;2022-12-05T01:23:50;99459.20;;;1.84;73.46
57847;BME280;43675;50.030;21.952;2022-12-05T01:26:23;99456.33;;;1.81;73.46
57847;BME280;43675;50.030;21.952;2022-12-05T01:28:55;99452.70;;;1.82;73.46
57847;BME280;43675;50.030;21.952;2022-12-05T01:31:26;99452.84;;;1.81;73.53
57847;BME280;43675;50.030;21.952;2022-12-05T01:33:54;99448.94;;;1.85;73.48
57847;BME280;43675;50.030;21.952;2022-12-05T01:36:21;99451.58;;;1.85;73.46
57847;BME280;43675;50.030;21.952;2022-12-05T01:38:47;99447.00;;;1.87;73.45
57847;BME280;43675;50.030;21.952;2022-12-05T01:41:19;99450.97;;;1.87;73.43
57847;BME280;43675;50.030;21.952;2022-12-05T01:43:54;99452.48;;;1.89;73.42
57847;BME280;43675;50.030;21.952;2022-12-05T01:46:20;99455.84;;;1.92;73.38
57847;BME280;43675;50.030;21.952;2022-12-05T01:48:46;99445.26;;;1.92;73.37
57847;BME280;43675;50.030;21.952;2022-12-05T01:51:12;99452.48;;;1.89;73.36
57847;BME280;43675;50.030;21.952;2022-12-05T01:53:44;99448.03;;;1.90;73.38
57847;BME280;43675;50.030;21.952;2022-12-05T01:56:11;99450.68;;;1.90;73.39
57847;BME280;43675;50.030;21.952;2022-12-05T01:58:39;99451.04;;;1.91;73.40
57847;BME280;43675;50.030;21.952;2022-12-05T02:01:06;99441.77;;;1.91;73.37
57847;BME280;43675;50.030;21.952;2022-12-05T02:03:32;99435.51;;;1.92;73.41
57847;BME280;43675;50.030;21.952;2022-12-05T02:05:59;99439.31;;;1.94;73.39
57847;BME280;43675;50.030;21.952;2022-12-05T02:08:27;99438.48;;;1.93;73.35
57847;BME280;43675;50.030;21.952;2022-12-05T02:10:54;99438.16;;;1.92;73.39
57847;BME280;43675;50.030;21.952;2022-12-05T02:22:15;99424.27;;;1.84;73.54
57847;BME280;43675;50.030;21.952;2022-12-05T02:24:53;99420.66;;;1.85;73.56
57847;BME280;43675;50.030;21.952;2022-12-05T02:27:37;99413.69;;;1.84;73.54
57847;BME280;43675;50.030;21.952;2022-12-05T02:30:08;99415.53;;;1.84;73.50
57847;BME280;43675;50.030;21.952;2022-12-05T02:38:40;99408.39;;;1.84;73.45
57847;BME280;43675;50.030;21.952;2022-12-05T02:41:13;99417.59;;;1.80;73.52
57847;BME280;43675;50.030;21.952;2022-12-05T02:44:02;99416.27;;;1.80;73.59
57847;BME280;43675;50.030;21.952;2022-12-05T02:46:26;99409.88;;;1.83;73.55
57847;BME280;43675;50.030;21.952;2022-12-05T02:48:56;99414.69;;;1.83;73.50
57847;BME280;43675;50.030;21.952;2022-12-05T02:51:32;99404.42;;;1.84;73.50
57847;BME280;43675;50.030;21.952;2022-12-05T02:54:00;99412.36;;;1.84;73.46
57847;BME280;43675;50.030;21.952;2022-12-05T02:56:28;99413.91;;;1.87;73.49
57847;BME280;43675;50.030;21.952;2022-12-05T02:58:56;99411.11;;;1.88;73.46
57847;BME280;43675;50.030;21.952;2022-12-05T03:01:24;99416.75;;;1.89;73.43
57847;BME280;43675;50.030;21.952;2022-12-05T03:03:50;99413.14;;;1.90;73.38
57847;BME280;43675;50.030;21.952;2022-12-05T03:06:28;99417.59;;;1.90;73.39
57847;BME280;43675;50.030;21.952;2022-12-05T03:09:09;99410.14;;;1.89;73.43
57847;BME280;43675;50.030;21.952;2022-12-05T03:11:39;99413.43;;;1.87;73.47
57847;BME280;43675;50.030;21.952;2022-12-05T03:14:07;99412.04;;;1.83;73.56
57847;BME280;43675;50.030;21.952;2022-12-05T03:16:37;99414.40;;;1.86;73.57
57847;BME280;43675;50.030;21.952;2022-12-05T03:19:17;99402.48;;;1.86;73.51
57847;BME280;43675;50.030;21.952;2022-12-05T03:21:46;99409.11;;;1.86;73.55
57847;BME280;43675;50.030;21.952;2022-12-05T03:24:13;99405.81;;;1.88;73.54
57847;BME280;43675;50.030;21.952;2022-12-05T03:27:09;99407.36;;;1.91;73.52
57847;BME280;43675;50.030;21.952;2022-12-05T03:30:05;99417.11;;;1.90;73.46
57847;BME280;43675;50.030;21.952;2022-12-05T03:35:23;99406.94;;;1.86;73.60
57847;BME280;43675;50.030;21.952;2022-12-05T03:38:00;99414.88;;;1.86;73.56
57847;BME280;43675;50.030;21.952;2022-12-05T03:43:24;99414.66;;;1.93;73.45
57847;BME280;43675;50.030;21.952;2022-12-05T03:46:02;99413.81;;;1.93;73.45
57847;BME280;43675;50.030;21.952;2022-12-05T03:48:29;99412.49;;;1.93;73.45
57847;BME280;43675;50.030;21.952;2022-12-05T03:50:57;99411.69;;;1.92;73.43
57847;BME280;43675;50.030;21.952;2022-12-05T03:53:26;99407.72;;;1.92;73.42
57847;BME280;43675;50.030;21.952;2022-12-05T03:56:05;99407.20;;;1.93;73.40
57847;BME280;43675;50.030;21.952;2022-12-05T03:58:38;99408.69;;;1.91;73.38
57847;BME280;43675;50.030;21.952;2022-12-05T04:01:05;99403.69;;;1.88;73.40
57847;BME280;43675;50.030;21.952;2022-12-05T04:03:42;99400.68;;;1.87;73.42
57847;BME280;43675;50.030;21.952;2022-12-05T04:06:23;99399.71;;;1.88;73.39
57847;BME280;43675;50.030;21.952;2022-12-05T04:08:55;99396.48;;;1.84;73.36
57847;BME280;43675;50.030;21.952;2022-12-05T04:11:23;99394.77;;;1.79;73.42
57847;BME280;43675;50.030;21.952;2022-12-05T04:14:00;99388.09;;;1.75;73.48
57847;BME280;43675;50.030;21.952;2022-12-05T04:16:39;99386.77;;;1.75;73.51
57847;BME280;43675;50.030;21.952;2022-12-05T04:19:08;99391.83;;;1.73;73.59
57847;BME280;43675;50.030;21.952;2022-12-05T04:21:49;99395.00;;;1.72;73.61
57847;BME280;43675;50.030;21.952;2022-12-05T04:24:24;99393.39;;;1.75;73.62
57847;BME280;43675;50.030;21.952;2022-12-05T04:30:02;99390.03;;;1.73;73.69
57847;BME280;43675;50.030;21.952;2022-12-05T04:32:32;99391.64;;;1.70;73.73
57847;BME280;43675;50.030;21.952;2022-12-05T04:35:00;99386.48;;;1.69;73.76
57847;BME280;43675;50.030;21.952;2022-12-05T04:37:28;99385.51;;;1.70;73.71
57847;BME280;43675;50.030;21.952;2022-12-05T04:39:59;99384.06;;;1.71;73.70
57847;BME280;43675;50.030;21.952;2022-12-05T04:42:27;99388.22;;;1.74;73.70
57847;BME280;43675;50.030;21.952;2022-12-05T04:45:01;99383.89;;;1.73;73.67
57847;BME280;43675;50.030;21.952;2022-12-05T04:47:29;99386.06;;;1.73;73.71
57847;BME280;43675;50.030;21.952;2022-12-05T04:49:55;99383.70;;;1.70;73.76
57847;BME280;43675;50.030;21.952;2022-12-05T04:52:24;99386.83;;;1.70;73.82
57847;BME280;43675;50.030;21.952;2022-12-05T04:54:53;99376.73;;;1.69;73.84
57847;BME280;43675;50.030;21.952;2022-12-05T04:57:28;99382.86;;;1.70;73.87
57847;BME280;43675;50.030;21.952;2022-12-05T05:00:02;99383.83;;;1.69;73.90
57847;BME280;43675;50.030;21.952;2022-12-05T05:02:44;99379.54;;;1.68;73.93
57847;BME280;43675;50.030;21.952;2022-12-05T05:05:02;99372.92;;;1.68;73.94
57847;BME280;43675;50.030;21.952;2022-12-05T05:07:29;99375.57;;;1.68;73.98
57847;BME280;43675;50.030;21.952;2022-12-05T05:09:55;99370.12;;;1.69;73.97
57847;BME280;43675;50.030;21.952;2022-12-05T05:12:21;99369.15;;;1.70;73.98
57847;BME280;43675;50.030;21.952;2022-12-05T05:14:47;99375.64;;;1.72;74.00
57847;BME280;43675;50.030;21.952;2022-12-05T05:17:20;99378.12;;;1.73;74.01
57847;BME280;43675;50.030;21.952;2022-12-05T05:19:45;99378.34;;;1.76;74.01
57847;BME280;43675;50.030;21.952;2022-12-05T05:22:11;99379.86;;;1.78;74.00
57847;BME280;43675;50.030;21.952;2022-12-05T05:24:37;99383.34;;;1.79;73.98
57847;BME280;43675;50.030;21.952;2022-12-05T05:27:02;99388.00;;;1.81;73.99
57847;BME280;43675;50.030;21.952;2022-12-05T05:29:28;99378.95;;;1.83;73.99
57847;BME280;43675;50.030;21.952;2022-12-05T05:31:54;99384.45;;;1.86;74.00
57847;BME280;43675;50.030;21.952;2022-12-05T05:34:19;99381.02;;;1.89;73.98
57847;BME280;43675;50.030;21.952;2022-12-05T05:36:52;99382.22;;;1.91;73.94
57847;BME280;43675;50.030;21.952;2022-12-05T05:39:17;99380.73;;;1.93;73.96
57847;BME280;43675;50.030;21.952;2022-12-05T05:41:43;99386.25;;;1.95;73.96
57847;BME280;43675;50.030;21.952;2022-12-05T05:44:09;99387.95;;;2.00;73.90
57847;BME280;43675;50.030;21.952;2022-12-05T05:46:41;99387.83;;;2.02;73.85
57847;BME280;43675;50.030;21.952;2022-12-05T05:49:07;99394.80;;;2.03;73.82
57847;BME280;43675;50.030;21.952;2022-12-05T05:51:32;99385.72;;;2.05;73.82
57847;BME280;43675;50.030;21.952;2022-12-05T05:53:58;99385.37;;;2.04;73.78
57847;BME280;43675;50.030;21.952;2022-12-05T05:56:25;99384.40;;;2.05;73.76
57847;BME280;43675;50.030;21.952;2022-12-05T05:59:00;99386.08;;;2.06;73.72
57847;BME280;43675;50.030;21.952;2022-12-05T06:01:26;99387.05;;;2.05;73.75
57847;BME280;43675;50.030;21.952;2022-12-05T06:03:53;99384.70;;;2.02;73.75
57847;BME280;43675;50.030;21.952;2022-12-05T06:06:19;99382.05;;;2.02;73.77
57847;BME280;43675;50.030;21.952;2022-12-05T06:08:45;99381.20;;;2.02;73.79
57847;BME280;43675;50.030;21.952;2022-12-05T06:11:18;99381.20;;;2.02;73.77
57847;BME280;43675;50.030;21.952;2022-12-05T06:13:40;99394.80;;;2.03;73.79
57847;BME280;43675;50.030;21.952;2022-12-05T06:16:08;99396.96;;;2.03;73.79
57847;BME280;43675;50.030;21.952;2022-12-05T06:18:35;99394.44;;;2.02;73.79
57847;BME280;43675;50.030;21.952;2022-12-05T06:21:09;99400.94;;;2.03;73.83
57847;BME280;43675;50.030;21.952;2022-12-05T06:23:36;99403.42;;;2.05;73.85
57847;BME280;43675;50.030;21.952;2022-12-05T06:26:03;99407.26;;;2.06;73.84
57847;BME280;43675;50.030;21.952;2022-12-05T06:28:30;99404.13;;;2.07;73.83
57847;BME280;43675;50.030;21.952;2022-12-05T06:30:56;99405.64;;;2.09;73.80
57847;BME280;43675;50.030;21.952;2022-12-05T06:33:22;99402.38;;;2.11;73.76
57847;BME280;43675;50.030;21.952;2022-12-05T06:35:59;99400.41;;;2.13;73.72
57847;BME280;43675;50.030;21.952;2022-12-05T06:38:16;99408.06;;;2.16;73.67
57847;BME280;43675;50.030;21.952;2022-12-05T06:40:43;99404.57;;;2.16;73.68
57847;BME280;43675;50.030;21.952;2022-12-05T06:43:09;99400.28;;;2.15;73.69
57847;BME280;43675;50.030;21.952;2022-12-05T06:45:39;99397.27;;;2.14;73.72
57847;BME280;43675;50.030;21.952;2022-12-05T06:48:11;99394.50;;;2.15;73.70
57847;BME280;43675;50.030;21.952;2022-12-05T06:50:36;99392.03;;;2.18;73.66
57847;BME280;43675;50.030;21.952;2022-12-05T06:53:02;99390.23;;;2.18;73.62
57847;BME280;43675;50.030;21.952;2022-12-05T06:55:28;99393.71;;;2.19;73.59
57847;BME280;43675;50.030;21.952;2022-12-05T06:57:54;99394.69;;;2.18;73.60
57847;BME280;43675;50.030;21.952;2022-12-05T07:00:19;99399.69;;;2.21;73.57
57847;BME280;43675;50.030;21.952;2022-12-05T07:02:45;99396.20;;;2.20;73.57
57847;BME280;43675;50.030;21.952;2022-12-05T07:05:11;99393.77;;;2.23;73.57
57847;BME280;43675;50.030;21.952;2022-12-05T07:07:37;99390.34;;;2.26;73.55
57847;BME280;43675;50.030;21.952;2022-12-05T07:10:04;99394.50;;;2.29;73.54
57847;BME280;43675;50.030;21.952;2022-12-05T07:12:31;99398.89;;;2.34;73.52
57847;BME280;43675;50.030;21.952;2022-12-05T07:14:57;99391.00;;;2.38;73.51
57847;BME280;43675;50.030;21.952;2022-12-05T07:17:34;99397.86;;;2.45;73.47
57847;BME280;43675;50.030;21.952;2022-12-05T07:19:59;99401.76;;;2.50;73.47
57847;BME280;43675;50.030;21.952;2022-12-05T07:22:34;99409.46;;;2.57;73.42
57847;BME280;43675;50.030;21.952;2022-12-05T07:25:00;99394.64;;;2.64;73.35
57847;BME280;43675;50.030;21.952;2022-12-05T07:27:25;99382.81;;;2.72;73.29
57847;BME280;43675;50.030;21.952;2022-12-05T07:29:51;99384.23;;;2.80;73.19
57847;BME280;43675;50.030;21.952;2022-12-05T07:32:17;99387.12;;;2.87;73.08
57847;BME280;43675;50.030;21.952;2022-12-05T07:34:49;99386.86;;;2.94;73.02
57847;BME280;43675;50.030;21.952;2022-12-05T07:37:14;99387.96;;;3.01;72.96
57847;BME280;43675;50.030;21.952;2022-12-05T07:39:40;99390.35;;;3.08;72.92
57847;BME280;43675;50.030;21.952;2022-12-05T07:42:06;99390.92;;;3.16;72.80
57847;BME280;43675;50.030;21.952;2022-12-05T07:44:32;99387.66;;;3.22;72.69
57847;BME280;43675;50.030;21.952;2022-12-05T07:47:04;99380.80;;;3.29;72.52
57847;BME280;43675;50.030;21.952;2022-12-05T07:49:29;99384.95;;;3.31;72.40
57847;BME280;43675;50.030;21.952;2022-12-05T07:51:55;99388.63;;;3.34;72.35
57847;BME280;43675;50.030;21.952;2022-12-05T07:54:21;99398.78;;;3.39;72.26
57847;BME280;43675;50.030;21.952;2022-12-05T07:56:47;99400.64;;;3.43;72.13
57847;BME280;43675;50.030;21.952;2022-12-05T07:59:12;99400.64;;;3.43;72.13
57847;BME280;43675;50.030;21.952;2022-12-05T08:01:38;99398.45;;;3.56;72.16
57847;BME280;43675;50.030;21.952;2022-12-05T08:04:04;99399.53;;;3.67;72.11
57847;BME280;43675;50.030;21.952;2022-12-05T08:06:30;99402.92;;;3.77;71.99
57847;BME280;43675;50.030;21.952;2022-12-05T08:08:57;99405.68;;;3.89;71.85
57847;BME280;43675;50.030;21.952;2022-12-05T08:11:26;99409.27;;;4.02;71.73
57847;BME280;43675;50.030;21.952;2022-12-05T08:13:53;99407.05;;;4.15;71.62
57847;BME280;43675;50.030;21.952;2022-12-05T08:16:21;99406.11;;;4.28;71.49
57847;BME280;43675;50.030;21.952;2022-12-05T08:18:47;99407.03;;;4.41;71.28
57847;BME280;43675;50.030;21.952;2022-12-05T08:21:15;99412.73;;;4.50;70.99
57847;BME280;43675;50.030;21.952;2022-12-05T08:23:42;99408.30;;;4.58;70.93
57847;BME280;43675;50.030;21.952;2022-12-05T08:26:10;99401.17;;;4.67;70.79
57847;BME280;43675;50.030;21.952;2022-12-05T08:28:43;99399.05;;;4.74;70.73
57847;BME280;43675;50.030;21.952;2022-12-05T08:31:16;99391.63;;;4.82;70.53
57847;BME280;43675;50.030;21.952;2022-12-05T08:33:48;99387.45;;;4.84;70.37
57847;BME280;43675;50.030;21.952;2022-12-05T08:36:15;99397.75;;;4.83;70.20
57847;BME280;43675;50.030;21.952;2022-12-05T08:38:47;99395.61;;;4.82;70.12
57847;BME280;43675;50.030;21.952;2022-12-05T08:41:16;99390.09;;;4.80;70.10
57847;BME280;43675;50.030;21.952;2022-12-05T08:43:43;99376.80;;;4.80;70.00
57847;BME280;43675;50.030;21.952;2022-12-05T08:46:09;99379.64;;;4.78;69.97
57847;BME280;43675;50.030;21.952;2022-12-05T08:48:36;99381.27;;;4.75;69.91
57847;BME280;43675;50.030;21.952;2022-12-05T08:51:08;99375.93;;;4.71;69.84
57847;BME280;43675;50.030;21.952;2022-12-05T08:56:22;99371.55;;;4.54;69.71
57847;BME280;43675;50.030;21.952;2022-12-05T08:58:48;99376.48;;;4.45;69.83
57847;BME280;43675;50.030;21.952;2022-12-05T09:01:17;99367.16;;;4.41;69.94
57847;BME280;43675;50.030;21.952;2022-12-05T09:03:43;99365.34;;;4.41;69.99
57847;BME280;43675;50.030;21.952;2022-12-05T09:06:15;99366.69;;;4.45;70.09
57847;BME280;43675;50.030;21.952;2022-12-05T09:08:42;99356.94;;;4.54;70.05
57847;BME280;43675;50.030;21.952;2022-12-05T09:11:11;99366.44;;;4.64;70.03
57847;BME280;43675;50.030;21.952;2022-12-05T09:13:37;99353.69;;;4.76;69.94
57847;BME280;43675;50.030;21.952;2022-12-05T09:16:09;99342.11;;;4.89;69.79
57847;BME280;43675;50.030;21.952;2022-12-05T09:18:36;99351.45;;;5.01;69.64
57847;BME280;43675;50.030;21.952;2022-12-05T09:21:08;99354.78;;;5.11;69.47
57847;BME280;43675;50.030;21.952;2022-12-05T09:23:41;99356.14;;;5.23;69.28
57847;BME280;43675;50.030;21.952;2022-12-05T09:26:10;99352.01;;;5.29;69.16
57847;BME280;43675;50.030;21.952;2022-12-05T09:28:43;99338.52;;;5.35;68.97
57847;BME280;43675;50.030;21.952;2022-12-05T09:31:12;99333.35;;;5.37;68.82
57847;BME280;43675;50.030;21.952;2022-12-05T09:33:46;99324.22;;;5.32;68.78
57847;BME280;43675;50.030;21.952;2022-12-05T09:36:21;99320.70;;;5.23;68.88
57847;BME280;43675;50.030;21.952;2022-12-05T09:38:47;99333.67;;;5.22;68.98
57847;BME280;43675;50.030;21.952;2022-12-05T09:47:45;99330.19;;;5.30;69.15
57847;BME280;43675;50.030;21.952;2022-12-05T09:55:51;99314.41;;;5.52;68.82
57847;BME280;43675;50.030;21.952;2022-12-05T10:01:02;99325.23;;;5.91;68.60
57847;BME280;43675;50.030;21.952;2022-12-05T10:03:36;99315.17;;;6.17;68.31
57847;BME280;43675;50.030;21.952;2022-12-05T10:06:14;99303.59;;;6.41;67.89
57847;BME280;43675;50.030;21.952;2022-12-05T10:09:14;99303.20;;;6.56;67.58
57847;BME280;43675;50.030;21.952;2022-12-05T10:11:46;99289.33;;;6.65;67.51
57847;BME280;43675;50.030;21.952;2022-12-05T10:17:09;99298.24;;;6.80;67.31
57847;BME280;43675;50.030;21.952;2022-12-05T10:19:34;99296.22;;;6.82;67.25
57847;BME280;43675;50.030;21.952;2022-12-05T10:22:12;99287.39;;;6.86;67.01
57847;BME280;43675;50.030;21.952;2022-12-05T10:24:45;99293.72;;;6.85;66.85
57847;BME280;43675;50.030;21.952;2022-12-05T10:27:25;99286.72;;;6.84;66.90
57847;BME280;43675;50.030;21.952;2022-12-05T10:30:00;99283.41;;;6.82;66.92
57847;BME280;43675;50.030;21.952;2022-12-05T10:32:29;99282.93;;;6.78;67.00
57847;BME280;43675;50.030;21.952;2022-12-05T10:35:18;99279.59;;;6.76;67.01
57847;BME280;43675;50.030;21.952;2022-12-05T10:37:44;99277.28;;;6.73;67.05
57847;BME280;43675;50.030;21.952;2022-12-05T10:40:11;99271.13;;;6.69;67.11
57847;BME280;43675;50.030;21.952;2022-12-05T10:42:38;99273.12;;;6.66;67.09
57847;BME280;43675;50.030;21.952;2022-12-05T10:45:07;99273.12;;;6.66;67.07
57847;BME280;43675;50.030;21.952;2022-12-05T10:47:34;99276.63;;;6.67;67.06
57847;BME280;43675;50.030;21.952;2022-12-05T10:50:51;99272.80;;;6.70;67.09
57847;BME280;43675;50.030;21.952;2022-12-05T10:52:34;99273.42;;;6.76;66.96
57847;BME280;43675;50.030;21.952;2022-12-05T10:55:02;99266.59;;;6.77;66.84
57847;BME280;43675;50.030;21.952;2022-12-05T10:57:29;99255.39;;;6.82;66.82
57847;BME280;43675;50.030;21.952;2022-12-05T10:59:55;99256.01;;;6.88;66.85
57847;BME280;43675;50.030;21.952;2022-12-05T11:04:50;99238.92;;;7.01;66.76
57847;BME280;43675;50.030;21.952;2022-12-05T11:09:53;99228.55;;;7.25;67.51
57847;BME280;43675;50.030;21.952;2022-12-05T11:12:24;99229.22;;;7.41;67.68
57847;BME280;43675;50.030;21.952;2022-12-05T11:15:04;99219.68;;;7.61;67.73
57847;BME280;43675;50.030;21.952;2022-12-05T11:17:32;99216.52;;;7.77;67.73
57847;BME280;43675;50.030;21.952;2022-12-05T11:19:58;99221.05;;;7.91;67.69
57847;BME280;43675;50.030;21.952;2022-12-05T11:22:35;99207.34;;;8.04;67.62
57847;BME280;43675;50.030;21.952;2022-12-05T11:25:33;99205.03;;;8.16;67.55
57847;BME280;43675;50.030;21.952;2022-12-05T11:30:58;99199.19;;;8.31;67.51
57847;BME280;43675;50.030;21.952;2022-12-05T11:33:27;99205.19;;;8.33;67.74
57847;BME280;43675;50.030;21.952;2022-12-05T11:35:55;99212.55;;;8.46;67.46
57847;BME280;43675;50.030;21.952;2022-12-05T11:38:25;99206.77;;;8.53;67.37
57847;BME280;43675;50.030;21.952;2022-12-05T11:43:50;99197.73;;;8.65;67.27
57847;BME280;43675;50.030;21.952;2022-12-05T11:51:30;99197.62;;;8.73;67.27
57847;BME280;43675;50.030;21.952;2022-12-05T11:56:42;99198.77;;;8.85;67.16
57847;BME280;43675;50.030;21.952;2022-12-05T11:59:27;99189.85;;;8.88;67.08
57847;BME280;43675;50.030;21.952;2022-12-05T12:15:39;99180.69;;;9.25;66.45
57847;BME280;43675;50.030;21.952;2022-12-05T12:23:52;99181.02;;;9.26;66.10
57847;BME280;43675;50.030;21.952;2022-12-05T12:26:46;99180.91;;;9.24;66.07
57847;BME280;43675;50.030;21.952;2022-12-05T12:29:27;99180.07;;;9.23;66.03
57847;BME280;43675;50.030;21.952;2022-12-05T12:32:12;99176.89;;;9.24;65.98
57847;BME280;43675;50.030;21.952;2022-12-05T12:46:12;99168.09;;;9.47;65.62
57847;BME280;43675;50.030;21.952;2022-12-05T12:49:00;99164.98;;;9.43;65.54
57847;BME280;43675;50.030;21.952;2022-12-05T12:51:25;99162.05;;;9.38;65.41
57847;BME280;43675;50.030;21.952;2022-12-05T12:59:44;99164.51;;;9.23;65.60
57847;BME280;43675;50.030;21.952;2022-12-05T13:02:23;99165.92;;;9.19;65.64
57847;BME280;43675;50.030;21.952;2022-12-05T13:04:55;99162.62;;;9.17;65.75
57847;BME280;43675;50.030;21.952;2022-12-05T13:07:35;99164.58;;;9.19;65.74
57847;BME280;43675;50.030;21.952;2022-12-05T13:10:04;99172.61;;;9.19;65.68
57847;BME280;43675;50.030;21.952;2022-12-05T13:12:37;99168.09;;;9.19;65.67
57847;BME280;43675;50.030;21.952;2022-12-05T13:15:09;99165.02;;;9.22;65.62
57847;BME280;43675;50.030;21.952;2022-12-05T13:17:33;99168.09;;;9.19;65.51
57847;BME280;43675;50.030;21.952;2022-12-05T13:20:00;99169.61;;;9.18;65.51
57847;BME280;43675;50.030;21.952;2022-12-05T13:22:27;99164.25;;;9.18;65.47
57847;BME280;43675;50.030;21.952;2022-12-05T13:25:00;99165.80;;;9.16;65.43
57847;BME280;43675;50.030;21.952;2022-12-05T13:27:26;99168.73;;;9.11;65.47
57847;BME280;43675;50.030;21.952;2022-12-05T13:29:55;99163.95;;;9.06;65.46
57847;BME280;43675;50.030;21.952;2022-12-05T13:32:28;99167.02;;;9.03;65.50
57847;BME280;43675;50.030;21.952;2022-12-05T13:34:56;99167.41;;;9.00;65.52
57847;BME280;43675;50.030;21.952;2022-12-05T13:37:29;99168.16;;;8.94;65.54
57847;BME280;43675;50.030;21.952;2022-12-05T13:39:56;99167.28;;;8.87;65.60
57847;BME280;43675;50.030;21.952;2022-12-05T13:42:26;99162.27;;;8.77;65.73
57847;BME280;43675;50.030;21.952;2022-12-05T13:50:48;99160.06;;;8.55;66.00
57847;BME280;43675;50.030;21.952;2022-12-05T13:53:31;99154.27;;;8.41;66.20
57847;BME280;43675;50.030;21.952;2022-12-05T13:56:02;99158.27;;;8.31;66.35
57847;BME280;43675;50.030;21.952;2022-12-05T13:58:48;99161.02;;;8.23;66.46
57847;BME280;43675;50.030;21.952;2022-12-05T14:03:56;99160.02;;;8.09;66.69
57847;BME280;43675;50.030;21.952;2022-12-05T14:22:40;99161.28;;;7.73;67.58
57847;BME280;43675;50.030;21.952;2022-12-05T14:25:25;99156.27;;;7.74;67.59
57847;BME280;43675;50.030;21.952;2022-12-05T14:27:58;99159.07;;;7.77;67.63
57847;BME280;43675;50.030;21.952;2022-12-05T14:30:28;99159.27;;;7.75;67.71
57847;BME280;43675;50.030;21.952;2022-12-05T14:32:52;99157.94;;;7.75;67.74
57847;BME280;43675;50.030;21.952;2022-12-05T14:35:23;99161.57;;;7.78;67.79
57847;BME280;43675;50.030;21.952;2022-12-05T14:38:01;99157.39;;;7.80;67.78
57847;BME280;43675;50.030;21.952;2022-12-05T14:40:41;99151.34;;;7.82;67.78
57847;BME280;43675;50.030;21.952;2022-12-05T14:46:02;99151.47;;;7.84;67.84
57847;BME280;43675;50.030;21.952;2022-12-05T14:48:34;99155.67;;;7.83;67.90
57847;BME280;43675;50.030;21.952;2022-12-05T14:51:03;99156.13;;;7.86;67.90
57847;BME280;43675;50.030;21.952;2022-12-05T14:53:32;99161.43;;;7.90;67.88
57847;BME280;43675;50.030;21.952;2022-12-05T14:56:20;99160.05;;;7.94;67.87
57847;BME280;43675;50.030;21.952;2022-12-05T14:59:00;99156.48;;;7.98;67.83
57847;BME280;43675;50.030;21.952;2022-12-05T15:01:28;99157.50;;;7.97;67.86
57847;BME280;43675;50.030;21.952;2022-12-05T15:04:16;99153.44;;;8.01;67.84
57847;BME280;43675;50.030;21.952;2022-12-05T15:09:58;99156.06;;;8.05;67.78
57847;BME280;43675;50.030;21.952;2022-12-05T15:15:12;99149.20;;;8.06;67.80
57847;BME280;43675;50.030;21.952;2022-12-05T15:17:48;99142.97;;;8.10;67.76
57847;BME280;43675;50.030;21.952;2022-12-05T15:20:33;99144.94;;;8.12;67.72
57847;BME280;43675;50.030;21.952;2022-12-05T15:22:59;99136.23;;;8.14;67.70
57847;BME280;43675;50.030;21.952;2022-12-05T15:25:28;99139.64;;;8.08;67.86
57847;BME280;43675;50.030;21.952;2022-12-05T15:27:57;99126.05;;;8.14;67.69